sensor_id;sensor_type;location;lat;lon;timestamp;P1;durP1;ratioP1;P2;durP2;ratioP2
46355;SDS011;32066;49.474;11.106;2023-12-22T00:00:57;4.32;;;0.95;;
46355;SDS011;32066;49.474;11.106;2023-12-22T00:03:25;6.70;;;1.63;;
46355;SDS011;32066;49.474;11.106;2023-12-22T00:05:54;5.03;;;1.10;;
46355;SDS011;32066;49.474;11.106;2023-12-22T00:08:23;6.40;;;1.55;;
46355;SDS011;32066;49.474;11.106;2023-12-22T00:10:51;4.38;;;1.30;;
46355;SDS011;32066;49.474;11.106;2023-12-22T00:13:20;6.53;;;1.50;;
46355;SDS011;32066;49.474;11.106;2023-12-22T00:15:48;7.20;;;1.35;;
46355;SDS011;32066;49.474;11.106;2023-12-22T00:18:20;9.73;;;1.73;;
46355;SDS011;32066;49.474;11.106;2023-12-22T00:20:48;7.13;;;1.40;;
46355;SDS011;32066;49.474;11.106;2023-12-22T00:23:17;6.90;;;1.67;;
46355;SDS011;32066;49.474;11.106;2023-12-22T00:25:45;9.32;;;1.60;;
46355;SDS011;32066;49.474;11.106;2023-12-22T00:28:14;7.57;;;1.10;;
46355;SDS011;32066;49.474;11.106;2023-12-22T00:30:43;7.32;;;1.30;;
46355;SDS011;32066;49.474;11.106;2023-12-22T00:33:11;5.50;;;1.35;;
46355;SDS011;32066;49.474;11.106;2023-12-22T00:35:43;5.75;;;1.85;;
46355;SDS011;32066;49.474;11.106;2023-12-22T00:38:12;9.48;;;1.60;;
46355;SDS011;32066;49.474;11.106;2023-12-22T00:40:41;5.95;;;1.30;;
46355;SDS011;32066;49.474;11.106;2023-12-22T00:43:09;4.63;;;1.25;;
46355;SDS011;32066;49.474;11.106;2023-12-22T00:45:38;9.15;;;1.40;;
46355;SDS011;32066;49.474;11.106;2023-12-22T00:48:07;8.93;;;1.35;;
46355;SDS011;32066;49.474;11.106;2023-12-22T00:50:35;6.13;;;1.35;;
46355;SDS011;32066;49.474;11.106;2023-12-22T00:53:07;6.18;;;1.35;;
46355;SDS011;32066;49.474;11.106;2023-12-22T00:55:36;8.07;;;1.67;;
46355;SDS011;32066;49.474;11.106;2023-12-22T00:58:04;7.97;;;1.65;;
46355;SDS011;32066;49.474;11.106;2023-12-22T01:00:33;6.82;;;1.50;;
46355;SDS011;32066;49.474;11.106;2023-12-22T01:03:02;8.68;;;1.58;;
46355;SDS011;32066;49.474;11.106;2023-12-22T01:05:31;9.20;;;1.70;;
46355;SDS011;32066;49.474;11.106;2023-12-22T01:07:59;6.65;;;1.58;;
46355;SDS011;32066;49.474;11.106;2023-12-22T01:10:31;7.50;;;1.52;;
46355;SDS011;32066;49.474;11.106;2023-12-22T01:12:59;9.13;;;1.83;;
46355;SDS011;32066;49.474;11.106;2023-12-22T01:15:28;10.95;;;1.70;;
46355;SDS011;32066;49.474;11.106;2023-12-22T01:17:57;6.30;;;1.40;;
46355;SDS011;32066;49.474;11.106;2023-12-22T01:20:25;9.02;;;1.55;;
46355;SDS011;32066;49.474;11.106;2023-12-22T01:22:54;10.85;;;1.83;;
46355;SDS011;32066;49.474;11.106;2023-12-22T01:25:23;11.85;;;2.30;;
46355;SDS011;32066;49.474;11.106;2023-12-22T01:27:54;7.75;;;1.70;;
46355;SDS011;32066;49.474;11.106;2023-12-22T01:30:22;8.57;;;1.75;;
46355;SDS011;32066;49.474;11.106;2023-12-22T01:32:51;5.18;;;1.58;;
46355;SDS011;32066;49.474;11.106;2023-12-22T01:35:20;9.77;;;1.77;;
46355;SDS011;32066;49.474;11.106;2023-12-22T01:37:49;8.82;;;1.77;;
46355;SDS011;32066;49.474;11.106;2023-12-22T01:40:17;9.38;;;2.33;;
46355;SDS011;32066;49.474;11.106;2023-12-22T01:42:46;10.77;;;1.63;;
46355;SDS011;32066;49.474;11.106;2023-12-22T01:45:17;8.18;;;1.30;;
46355;SDS011;32066;49.474;11.106;2023-12-22T01:47:46;11.48;;;1.75;;
46355;SDS011;32066;49.474;11.106;2023-12-22T01:50:15;8.05;;;1.35;;
46355;SDS011;32066;49.474;11.106;2023-12-22T01:52:45;6.45;;;1.40;;
46355;SDS011;32066;49.474;11.106;2023-12-22T01:55:14;8.23;;;1.60;;
46355;SDS011;32066;49.474;11.106;2023-12-22T01:57:44;6.28;;;1.30;;
46355;SDS011;32066;49.474;11.106;2023-12-22T02:00:14;6.60;;;1.77;;
46355;SDS011;32066;49.474;11.106;2023-12-22T02:02:46;5.07;;;1.10;;
46355;SDS011;32066;49.474;11.106;2023-12-22T02:05:15;7.07;;;1.40;;
46355;SDS011;32066;49.474;11.106;2023-12-22T02:07:45;5.32;;;1.13;;
46355;SDS011;32066;49.474;11.106;2023-12-22T02:10:14;7.05;;;1.40;;
46355;SDS011;32066;49.474;11.106;2023-12-22T02:12:42;6.85;;;1.33;;
46355;SDS011;32066;49.474;11.106;2023-12-22T02:15:11;5.22;;;1.00;;
46355;SDS011;32066;49.474;11.106;2023-12-22T02:17:47;5.20;;;1.35;;
46355;SDS011;32066;49.474;11.106;2023-12-22T02:20:19;4.63;;;1.13;;
46355;SDS011;32066;49.474;11.106;2023-12-22T02:22:53;4.47;;;1.10;;
46355;SDS011;32066;49.474;11.106;2023-12-22T02:25:22;5.32;;;1.17;;
46355;SDS011;32066;49.474;11.106;2023-12-22T02:27:52;6.10;;;1.17;;
46355;SDS011;32066;49.474;11.106;2023-12-22T02:30:26;9.43;;;1.10;;
46355;SDS011;32066;49.474;11.106;2023-12-22T02:33:01;6.18;;;0.95;;
46355;SDS011;32066;49.474;11.106;2023-12-22T02:35:32;5.22;;;0.98;;
46355;SDS011;32066;49.474;11.106;2023-12-22T02:38:09;5.85;;;1.08;;
46355;SDS011;32066;49.474;11.106;2023-12-22T02:40:40;4.53;;;1.10;;
46355;SDS011;32066;49.474;11.106;2023-12-22T02:43:10;6.25;;;1.15;;
46355;SDS011;32066;49.474;11.106;2023-12-22T02:45:39;4.28;;;0.90;;
46355;SDS011;32066;49.474;11.106;2023-12-22T02:48:07;5.97;;;1.02;;
46355;SDS011;32066;49.474;11.106;2023-12-22T02:50:36;4.50;;;0.80;;
46355;SDS011;32066;49.474;11.106;2023-12-22T02:53:05;4.20;;;0.80;;
46355;SDS011;32066;49.474;11.106;2023-12-22T02:55:36;5.80;;;1.00;;
46355;SDS011;32066;49.474;11.106;2023-12-22T02:58:05;6.25;;;0.95;;
46355;SDS011;32066;49.474;11.106;2023-12-22T03:00:33;4.97;;;0.90;;
46355;SDS011;32066;49.474;11.106;2023-12-22T03:03:02;4.80;;;0.80;;
46355;SDS011;32066;49.474;11.106;2023-12-22T03:05:31;4.55;;;0.90;;
46355;SDS011;32066;49.474;11.106;2023-12-22T03:08:00;4.20;;;0.80;;
46355;SDS011;32066;49.474;11.106;2023-12-22T03:10:29;3.53;;;0.70;;
46355;SDS011;32066;49.474;11.106;2023-12-22T03:13:00;2.42;;;0.50;;
46355;SDS011;32066;49.474;11.106;2023-12-22T03:15:28;4.60;;;0.80;;
46355;SDS011;32066;49.474;11.106;2023-12-22T03:17:57;2.58;;;0.60;;
46355;SDS011;32066;49.474;11.106;2023-12-22T03:20:26;3.35;;;0.63;;
46355;SDS011;32066;49.474;11.106;2023-12-22T03:22:54;3.53;;;0.77;;
46355;SDS011;32066;49.474;11.106;2023-12-22T03:25:23;3.22;;;0.75;;
46355;SDS011;32066;49.474;11.106;2023-12-22T03:27:52;4.35;;;0.80;;
46355;SDS011;32066;49.474;11.106;2023-12-22T03:30:23;3.15;;;0.80;;
46355;SDS011;32066;49.474;11.106;2023-12-22T03:32:52;2.97;;;0.68;;
46355;SDS011;32066;49.474;11.106;2023-12-22T03:35:20;3.38;;;0.70;;
46355;SDS011;32066;49.474;11.106;2023-12-22T03:37:49;4.47;;;0.75;;
46355;SDS011;32066;49.474;11.106;2023-12-22T03:40:17;5.13;;;0.77;;
46355;SDS011;32066;49.474;11.106;2023-12-22T03:42:46;2.40;;;0.60;;
46355;SDS011;32066;49.474;11.106;2023-12-22T03:45:15;2.65;;;0.73;;
46355;SDS011;32066;49.474;11.106;2023-12-22T03:47:46;2.58;;;0.70;;
46355;SDS011;32066;49.474;11.106;2023-12-22T03:50:14;5.30;;;0.75;;
46355;SDS011;32066;49.474;11.106;2023-12-22T03:52:43;2.58;;;0.63;;
46355;SDS011;32066;49.474;11.106;2023-12-22T03:55:12;2.72;;;0.60;;
46355;SDS011;32066;49.474;11.106;2023-12-22T03:57:41;6.50;;;1.02;;
46355;SDS011;32066;49.474;11.106;2023-12-22T04:00:10;2.22;;;0.50;;
46355;SDS011;32066;49.474;11.106;2023-12-22T04:02:40;4.88;;;0.70;;
46355;SDS011;32066;49.474;11.106;2023-12-22T04:05:13;3.28;;;1.00;;
46355;SDS011;32066;49.474;11.106;2023-12-22T04:07:42;3.50;;;0.80;;
46355;SDS011;32066;49.474;11.106;2023-12-22T04:10:10;4.03;;;0.75;;
46355;SDS011;32066;49.474;11.106;2023-12-22T04:12:39;2.88;;;0.70;;
46355;SDS011;32066;49.474;11.106;2023-12-22T04:15:08;4.38;;;0.60;;
46355;SDS011;32066;49.474;11.106;2023-12-22T04:17:36;3.40;;;0.60;;
46355;SDS011;32066;49.474;11.106;2023-12-22T04:20:06;5.10;;;0.70;;
46355;SDS011;32066;49.474;11.106;2023-12-22T04:22:38;5.18;;;0.80;;
46355;SDS011;32066;49.474;11.106;2023-12-22T04:25:07;6.55;;;0.70;;
46355;SDS011;32066;49.474;11.106;2023-12-22T04:27:36;4.03;;;0.80;;
46355;SDS011;32066;49.474;11.106;2023-12-22T04:30:05;2.65;;;0.85;;
46355;SDS011;32066;49.474;11.106;2023-12-22T04:32:34;3.85;;;0.63;;
46355;SDS011;32066;49.474;11.106;2023-12-22T04:35:04;3.08;;;0.68;;
46355;SDS011;32066;49.474;11.106;2023-12-22T04:37:33;3.33;;;0.90;;
46355;SDS011;32066;49.474;11.106;2023-12-22T04:40:04;4.10;;;0.98;;
46355;SDS011;32066;49.474;11.106;2023-12-22T04:42:33;3.60;;;0.70;;
46355;SDS011;32066;49.474;11.106;2023-12-22T04:45:02;6.18;;;0.77;;
46355;SDS011;32066;49.474;11.106;2023-12-22T04:47:31;5.20;;;0.70;;
46355;SDS011;32066;49.474;11.106;2023-12-22T04:50:00;4.30;;;0.60;;
46355;SDS011;32066;49.474;11.106;2023-12-22T04:52:29;3.03;;;0.68;;
46355;SDS011;32066;49.474;11.106;2023-12-22T04:54:57;2.97;;;0.77;;
46355;SDS011;32066;49.474;11.106;2023-12-22T04:57:28;4.43;;;0.60;;
46355;SDS011;32066;49.474;11.106;2023-12-22T04:59:57;6.15;;;0.80;;
46355;SDS011;32066;49.474;11.106;2023-12-22T05:02:26;3.58;;;0.60;;
46355;SDS011;32066;49.474;11.106;2023-12-22T05:04:54;3.08;;;0.70;;
46355;SDS011;32066;49.474;11.106;2023-12-22T05:07:23;4.15;;;0.85;;
46355;SDS011;32066;49.474;11.106;2023-12-22T05:09:52;4.75;;;0.70;;
46355;SDS011;32066;49.474;11.106;2023-12-22T05:12:21;1.48;;;0.45;;
46355;SDS011;32066;49.474;11.106;2023-12-22T05:14:52;3.53;;;0.80;;
46355;SDS011;32066;49.474;11.106;2023-12-22T05:17:21;4.80;;;0.95;;
46355;SDS011;32066;49.474;11.106;2023-12-22T05:19:49;4.68;;;1.08;;
46355;SDS011;32066;49.474;11.106;2023-12-22T05:22:18;3.15;;;0.70;;
46355;SDS011;32066;49.474;11.106;2023-12-22T05:24:47;3.75;;;0.73;;
46355;SDS011;32066;49.474;11.106;2023-12-22T05:27:15;3.00;;;0.75;;
46355;SDS011;32066;49.474;11.106;2023-12-22T05:29:44;4.15;;;0.70;;
46355;SDS011;32066;49.474;11.106;2023-12-22T05:32:15;2.28;;;0.70;;
46355;SDS011;32066;49.474;11.106;2023-12-22T05:34:44;4.05;;;0.80;;
46355;SDS011;32066;49.474;11.106;2023-12-22T05:37:13;4.13;;;0.80;;
46355;SDS011;32066;49.474;11.106;2023-12-22T05:39:41;3.35;;;0.70;;
46355;SDS011;32066;49.474;11.106;2023-12-22T05:42:10;5.25;;;0.80;;
46355;SDS011;32066;49.474;11.106;2023-12-22T05:44:39;4.60;;;1.00;;
46355;SDS011;32066;49.474;11.106;2023-12-22T05:47:07;3.60;;;0.63;;
46355;SDS011;32066;49.474;11.106;2023-12-22T05:49:39;3.25;;;0.75;;
46355;SDS011;32066;49.474;11.106;2023-12-22T05:52:07;7.32;;;0.77;;
46355;SDS011;32066;49.474;11.106;2023-12-22T05:54:37;4.55;;;0.88;;
46355;SDS011;32066;49.474;11.106;2023-12-22T05:57:06;2.60;;;0.63;;
46355;SDS011;32066;49.474;11.106;2023-12-22T05:59:34;3.78;;;0.80;;
46355;SDS011;32066;49.474;11.106;2023-12-22T06:02:03;4.70;;;0.80;;
46355;SDS011;32066;49.474;11.106;2023-12-22T06:04:32;4.43;;;1.10;;
46355;SDS011;32066;49.474;11.106;2023-12-22T06:07:03;3.28;;;0.65;;
46355;SDS011;32066;49.474;11.106;2023-12-22T06:09:32;3.53;;;1.00;;
46355;SDS011;32066;49.474;11.106;2023-12-22T06:12:00;3.20;;;0.90;;
46355;SDS011;32066;49.474;11.106;2023-12-22T06:14:30;3.83;;;0.90;;
46355;SDS011;32066;49.474;11.106;2023-12-22T06:17:00;3.58;;;0.70;;
46355;SDS011;32066;49.474;11.106;2023-12-22T06:19:28;4.22;;;0.70;;
46355;SDS011;32066;49.474;11.106;2023-12-22T06:21:57;3.92;;;0.77;;
46355;SDS011;32066;49.474;11.106;2023-12-22T06:24:30;2.63;;;0.80;;
46355;SDS011;32066;49.474;11.106;2023-12-22T06:26:58;4.05;;;0.80;;
46355;SDS011;32066;49.474;11.106;2023-12-22T06:29:27;3.55;;;0.70;;
46355;SDS011;32066;49.474;11.106;2023-12-22T06:31:56;3.88;;;0.90;;
46355;SDS011;32066;49.474;11.106;2023-12-22T06:34:22;3.33;;;0.90;;
46355;SDS011;32066;49.474;11.106;2023-12-22T06:36:51;3.65;;;0.80;;
46355;SDS011;32066;49.474;11.106;2023-12-22T06:39:20;2.35;;;0.77;;
46355;SDS011;32066;49.474;11.106;2023-12-22T06:41:51;2.65;;;0.75;;
46355;SDS011;32066;49.474;11.106;2023-12-22T06:44:20;3.67;;;0.80;;
46355;SDS011;32066;49.474;11.106;2023-12-22T06:46:50;2.40;;;0.60;;
46355;SDS011;32066;49.474;11.106;2023-12-22T06:49:19;2.63;;;0.70;;
46355;SDS011;32066;49.474;11.106;2023-12-22T06:51:48;2.15;;;0.77;;
46355;SDS011;32066;49.474;11.106;2023-12-22T06:54:17;2.28;;;0.57;;
46355;SDS011;32066;49.474;11.106;2023-12-22T06:56:45;2.78;;;0.80;;
46355;SDS011;32066;49.474;11.106;2023-12-22T06:59:17;2.90;;;0.77;;
46355;SDS011;32066;49.474;11.106;2023-12-22T07:01:45;2.33;;;0.73;;
46355;SDS011;32066;49.474;11.106;2023-12-22T07:04:14;3.40;;;0.90;;
46355;SDS011;32066;49.474;11.106;2023-12-22T07:06:42;2.75;;;0.70;;
46355;SDS011;32066;49.474;11.106;2023-12-22T07:11:59;3.50;;;0.95;;
46355;SDS011;32066;49.474;11.106;2023-12-22T07:14:31;4.30;;;1.13;;
46355;SDS011;32066;49.474;11.106;2023-12-22T07:17:00;4.28;;;1.10;;
46355;SDS011;32066;49.474;11.106;2023-12-22T07:19:29;4.55;;;1.15;;
46355;SDS011;32066;49.474;11.106;2023-12-22T07:21:57;3.80;;;1.35;;
46355;SDS011;32066;49.474;11.106;2023-12-22T07:24:27;3.75;;;1.02;;
46355;SDS011;32066;49.474;11.106;2023-12-22T07:26:56;4.32;;;1.23;;
46355;SDS011;32066;49.474;11.106;2023-12-22T07:29:25;5.28;;;1.40;;
46355;SDS011;32066;49.474;11.106;2023-12-22T07:31:56;5.95;;;1.73;;
46355;SDS011;32066;49.474;11.106;2023-12-22T07:34:24;5.43;;;1.40;;
46355;SDS011;32066;49.474;11.106;2023-12-22T07:36:53;5.90;;;1.17;;
46355;SDS011;32066;49.474;11.106;2023-12-22T07:39:22;5.10;;;1.35;;
46355;SDS011;32066;49.474;11.106;2023-12-22T07:41:51;9.68;;;1.67;;
46355;SDS011;32066;49.474;11.106;2023-12-22T07:44:19;5.80;;;1.52;;
46355;SDS011;32066;49.474;11.106;2023-12-22T07:46:58;7.65;;;1.40;;
46355;SDS011;32066;49.474;11.106;2023-12-22T07:49:26;6.43;;;1.42;;
46355;SDS011;32066;49.474;11.106;2023-12-22T07:51:55;5.97;;;1.70;;
46355;SDS011;32066;49.474;11.106;2023-12-22T07:54:23;7.15;;;1.30;;
46355;SDS011;32066;49.474;11.106;2023-12-22T07:56:52;7.38;;;1.48;;
46355;SDS011;32066;49.474;11.106;2023-12-22T07:59:21;6.15;;;1.30;;
46355;SDS011;32066;49.474;11.106;2023-12-22T08:01:49;4.55;;;1.33;;
46355;SDS011;32066;49.474;11.106;2023-12-22T08:04:21;7.07;;;1.33;;
46355;SDS011;32066;49.474;11.106;2023-12-22T08:06:49;4.68;;;1.15;;
46355;SDS011;32066;49.474;11.106;2023-12-22T08:09:18;4.68;;;1.30;;
46355;SDS011;32066;49.474;11.106;2023-12-22T08:11:48;6.10;;;1.30;;
46355;SDS011;32066;49.474;11.106;2023-12-22T08:14:18;6.60;;;1.20;;
46355;SDS011;32066;49.474;11.106;2023-12-22T08:16:47;5.35;;;1.23;;
46355;SDS011;32066;49.474;11.106;2023-12-22T08:19:15;6.07;;;1.40;;
46355;SDS011;32066;49.474;11.106;2023-12-22T08:21:46;4.70;;;1.55;;
46355;SDS011;32066;49.474;11.106;2023-12-22T08:24:15;5.97;;;1.42;;
46355;SDS011;32066;49.474;11.106;2023-12-22T08:26:44;4.70;;;1.10;;
46355;SDS011;32066;49.474;11.106;2023-12-22T08:29:13;9.45;;;1.30;;
46355;SDS011;32066;49.474;11.106;2023-12-22T08:31:41;8.73;;;1.45;;
46355;SDS011;32066;49.474;11.106;2023-12-22T08:34:10;6.00;;;1.58;;
46355;SDS011;32066;49.474;11.106;2023-12-22T08:36:39;7.22;;;1.67;;
46355;SDS011;32066;49.474;11.106;2023-12-22T08:39:10;25.83;;;4.30;;
46355;SDS011;32066;49.474;11.106;2023-12-22T08:41:39;22.60;;;4.20;;
46355;SDS011;32066;49.474;11.106;2023-12-22T08:44:07;21.80;;;2.42;;
46355;SDS011;32066;49.474;11.106;2023-12-22T08:46:36;7.35;;;1.48;;
46355;SDS011;32066;49.474;11.106;2023-12-22T08:49:05;7.28;;;1.38;;
46355;SDS011;32066;49.474;11.106;2023-12-22T08:51:33;5.60;;;1.50;;
46355;SDS011;32066;49.474;11.106;2023-12-22T08:54:02;10.65;;;1.52;;
46355;SDS011;32066;49.474;11.106;2023-12-22T08:56:34;5.85;;;1.05;;
46355;SDS011;32066;49.474;11.106;2023-12-22T08:59:03;5.00;;;1.10;;
46355;SDS011;32066;49.474;11.106;2023-12-22T09:01:34;3.70;;;0.95;;
46355;SDS011;32066;49.474;11.106;2023-12-22T09:04:03;3.83;;;1.15;;
46355;SDS011;32066;49.474;11.106;2023-12-22T09:06:31;7.50;;;1.27;;
46355;SDS011;32066;49.474;11.106;2023-12-22T09:09:00;5.68;;;1.20;;
46355;SDS011;32066;49.474;11.106;2023-12-22T09:11:34;6.50;;;1.60;;
46355;SDS011;32066;49.474;11.106;2023-12-22T09:14:04;7.85;;;1.33;;
46355;SDS011;32066;49.474;11.106;2023-12-22T09:16:34;7.18;;;1.40;;
46355;SDS011;32066;49.474;11.106;2023-12-22T09:19:03;7.22;;;1.35;;
46355;SDS011;32066;49.474;11.106;2023-12-22T09:21:32;7.43;;;1.65;;
46355;SDS011;32066;49.474;11.106;2023-12-22T09:24:01;8.25;;;2.00;;
46355;SDS011;32066;49.474;11.106;2023-12-22T09:26:30;9.35;;;1.80;;
46355;SDS011;32066;49.474;11.106;2023-12-22T09:29:01;7.38;;;1.60;;
46355;SDS011;32066;49.474;11.106;2023-12-22T09:31:30;4.93;;;1.50;;
46355;SDS011;32066;49.474;11.106;2023-12-22T09:33:59;9.07;;;1.70;;
46355;SDS011;32066;49.474;11.106;2023-12-22T09:36:27;6.18;;;1.50;;
46355;SDS011;32066;49.474;11.106;2023-12-22T09:38:56;8.88;;;1.50;;
46355;SDS011;32066;49.474;11.106;2023-12-22T09:41:25;8.13;;;1.75;;
46355;SDS011;32066;49.474;11.106;2023-12-22T09:43:53;9.55;;;1.75;;
46355;SDS011;32066;49.474;11.106;2023-12-22T09:46:29;7.10;;;1.60;;
46355;SDS011;32066;49.474;11.106;2023-12-22T09:48:59;9.88;;;1.95;;
46355;SDS011;32066;49.474;11.106;2023-12-22T09:51:28;8.27;;;1.70;;
46355;SDS011;32066;49.474;11.106;2023-12-22T09:53:59;7.50;;;1.90;;
46355;SDS011;32066;49.474;11.106;2023-12-22T09:56:29;8.95;;;1.70;;
46355;SDS011;32066;49.474;11.106;2023-12-22T09:58:58;5.65;;;1.20;;
46355;SDS011;32066;49.474;11.106;2023-12-22T10:01:30;5.80;;;1.30;;
46355;SDS011;32066;49.474;11.106;2023-12-22T10:04:00;9.88;;;1.40;;
46355;SDS011;32066;49.474;11.106;2023-12-22T10:06:29;6.50;;;1.27;;
46355;SDS011;32066;49.474;11.106;2023-12-22T10:08:57;8.35;;;1.50;;
46355;SDS011;32066;49.474;11.106;2023-12-22T10:11:30;7.57;;;1.50;;
46355;SDS011;32066;49.474;11.106;2023-12-22T10:14:00;5.65;;;1.30;;
46355;SDS011;32066;49.474;11.106;2023-12-22T10:16:32;6.13;;;1.30;;
46355;SDS011;32066;49.474;11.106;2023-12-22T10:19:02;7.43;;;1.48;;
46355;SDS011;32066;49.474;11.106;2023-12-22T10:21:31;8.73;;;1.55;;
46355;SDS011;32066;49.474;11.106;2023-12-22T10:24:00;4.88;;;1.52;;
46355;SDS011;32066;49.474;11.106;2023-12-22T10:26:29;3.85;;;0.95;;
46355;SDS011;32066;49.474;11.106;2023-12-22T10:28:57;5.53;;;1.10;;
46355;SDS011;32066;49.474;11.106;2023-12-22T10:31:26;5.30;;;0.93;;
46355;SDS011;32066;49.474;11.106;2023-12-22T10:33:57;4.03;;;0.77;;
46355;SDS011;32066;49.474;11.106;2023-12-22T10:36:26;5.25;;;1.20;;
46355;SDS011;32066;49.474;11.106;2023-12-22T10:38:55;4.47;;;0.95;;
46355;SDS011;32066;49.474;11.106;2023-12-22T10:41:23;3.60;;;0.88;;
46355;SDS011;32066;49.474;11.106;2023-12-22T10:43:52;5.40;;;1.75;;
46355;SDS011;32066;49.474;11.106;2023-12-22T10:46:21;4.65;;;1.17;;
46355;SDS011;32066;49.474;11.106;2023-12-22T10:48:52;5.30;;;1.08;;
46355;SDS011;32066;49.474;11.106;2023-12-22T10:51:23;3.80;;;0.88;;
46355;SDS011;32066;49.474;11.106;2023-12-22T10:53:52;4.90;;;0.90;;
46355;SDS011;32066;49.474;11.106;2023-12-22T10:56:20;3.10;;;0.80;;
46355;SDS011;32066;49.474;11.106;2023-12-22T10:58:50;4.03;;;1.02;;
46355;SDS011;32066;49.474;11.106;2023-12-22T11:01:20;4.68;;;1.33;;
46355;SDS011;32066;49.474;11.106;2023-12-22T11:03:52;4.57;;;1.10;;
46355;SDS011;32066;49.474;11.106;2023-12-22T11:06:24;7.00;;;1.58;;
46355;SDS011;32066;49.474;11.106;2023-12-22T11:08:54;5.03;;;1.48;;
46355;SDS011;32066;49.474;11.106;2023-12-22T11:11:26;6.60;;;1.60;;
46355;SDS011;32066;49.474;11.106;2023-12-22T11:13:58;7.30;;;1.80;;
46355;SDS011;32066;49.474;11.106;2023-12-22T11:16:28;6.38;;;1.70;;
46355;SDS011;32066;49.474;11.106;2023-12-22T11:18:58;9.02;;;1.63;;
46355;SDS011;32066;49.474;11.106;2023-12-22T11:21:30;5.95;;;1.48;;
46355;SDS011;32066;49.474;11.106;2023-12-22T11:23:59;7.03;;;1.55;;
46355;SDS011;32066;49.474;11.106;2023-12-22T11:26:29;6.90;;;1.88;;
46355;SDS011;32066;49.474;11.106;2023-12-22T11:28:58;6.30;;;1.58;;
46355;SDS011;32066;49.474;11.106;2023-12-22T11:31:28;6.10;;;1.60;;
46355;SDS011;32066;49.474;11.106;2023-12-22T11:33:59;6.55;;;1.60;;
46355;SDS011;32066;49.474;11.106;2023-12-22T11:36:31;5.30;;;1.30;;
46355;SDS011;32066;49.474;11.106;2023-12-22T11:39:01;5.25;;;1.45;;
46355;SDS011;32066;49.474;11.106;2023-12-22T11:41:30;5.85;;;1.30;;
46355;SDS011;32066;49.474;11.106;2023-12-22T11:44:02;4.72;;;1.30;;
46355;SDS011;32066;49.474;11.106;2023-12-22T11:46:33;5.55;;;1.33;;
46355;SDS011;32066;49.474;11.106;2023-12-22T11:49:02;5.60;;;1.20;;
46355;SDS011;32066;49.474;11.106;2023-12-22T11:51:34;4.65;;;1.30;;
46355;SDS011;32066;49.474;11.106;2023-12-22T11:54:13;7.50;;;1.60;;
46355;SDS011;32066;49.474;11.106;2023-12-22T11:57:33;9.00;;;1.60;;
46355;SDS011;32066;49.474;11.106;2023-12-22T12:00:06;8.07;;;1.50;;
46355;SDS011;32066;49.474;11.106;2023-12-22T12:02:40;5.55;;;1.73;;
46355;SDS011;32066;49.474;11.106;2023-12-22T12:05:09;5.53;;;1.27;;
46355;SDS011;32066;49.474;11.106;2023-12-22T12:07:46;6.13;;;1.50;;
46355;SDS011;32066;49.474;11.106;2023-12-22T12:13:21;7.00;;;1.60;;
46355;SDS011;32066;49.474;11.106;2023-12-22T12:15:52;6.10;;;1.40;;
46355;SDS011;32066;49.474;11.106;2023-12-22T12:18:27;6.03;;;1.42;;
46355;SDS011;32066;49.474;11.106;2023-12-22T12:20:56;5.38;;;1.45;;
46355;SDS011;32066;49.474;11.106;2023-12-22T12:23:28;8.43;;;1.50;;
46355;SDS011;32066;49.474;11.106;2023-12-22T12:25:57;11.20;;;2.10;;
46355;SDS011;32066;49.474;11.106;2023-12-22T12:28:25;7.10;;;1.60;;
46355;SDS011;32066;49.474;11.106;2023-12-22T12:30:59;9.00;;;1.98;;
46355;SDS011;32066;49.474;11.106;2023-12-22T12:33:29;10.85;;;2.17;;
46355;SDS011;32066;49.474;11.106;2023-12-22T12:35:58;11.25;;;2.30;;
46355;SDS011;32066;49.474;11.106;2023-12-22T12:38:39;11.18;;;2.63;;
46355;SDS011;32066;49.474;11.106;2023-12-22T12:41:11;14.60;;;2.55;;
46355;SDS011;32066;49.474;11.106;2023-12-22T12:43:41;11.77;;;3.40;;
46355;SDS011;32066;49.474;11.106;2023-12-22T12:46:11;11.60;;;2.30;;
46355;SDS011;32066;49.474;11.106;2023-12-22T12:48:40;14.32;;;2.90;;
46355;SDS011;32066;49.474;11.106;2023-12-22T12:51:08;16.95;;;3.90;;
46355;SDS011;32066;49.474;11.106;2023-12-22T12:53:40;12.50;;;2.85;;
46355;SDS011;32066;49.474;11.106;2023-12-22T12:56:08;14.75;;;2.67;;
46355;SDS011;32066;49.474;11.106;2023-12-22T12:58:39;14.32;;;3.58;;
46355;SDS011;32066;49.474;11.106;2023-12-22T13:01:08;12.65;;;2.78;;
46355;SDS011;32066;49.474;11.106;2023-12-22T13:08:58;17.35;;;2.80;;
46355;SDS011;32066;49.474;11.106;2023-12-22T13:11:27;16.65;;;3.40;;
46355;SDS011;32066;49.474;11.106;2023-12-22T13:13:58;9.98;;;2.45;;
46355;SDS011;32066;49.474;11.106;2023-12-22T13:16:27;13.95;;;2.83;;
46355;SDS011;32066;49.474;11.106;2023-12-22T13:18:57;12.40;;;2.22;;
46355;SDS011;32066;49.474;11.106;2023-12-22T13:21:27;13.15;;;2.88;;
46355;SDS011;32066;49.474;11.106;2023-12-22T13:24:11;12.65;;;2.83;;
46355;SDS011;32066;49.474;11.106;2023-12-22T13:26:41;11.60;;;2.58;;
46355;SDS011;32066;49.474;11.106;2023-12-22T13:29:11;13.70;;;2.33;;
46355;SDS011;32066;49.474;11.106;2023-12-22T13:31:41;13.85;;;2.80;;
46355;SDS011;32066;49.474;11.106;2023-12-22T13:34:13;13.07;;;2.95;;
46355;SDS011;32066;49.474;11.106;2023-12-22T13:36:42;15.57;;;3.00;;
46355;SDS011;32066;49.474;11.106;2023-12-22T13:39:14;10.40;;;2.80;;
46355;SDS011;32066;49.474;11.106;2023-12-22T13:41:43;10.77;;;2.13;;
46355;SDS011;32066;49.474;11.106;2023-12-22T13:44:13;9.82;;;1.90;;
46355;SDS011;32066;49.474;11.106;2023-12-22T13:46:43;7.95;;;1.88;;
46355;SDS011;32066;49.474;11.106;2023-12-22T13:49:12;10.82;;;2.75;;
46355;SDS011;32066;49.474;11.106;2023-12-22T13:51:41;8.18;;;1.90;;
46355;SDS011;32066;49.474;11.106;2023-12-22T13:54:17;6.13;;;1.58;;
46355;SDS011;32066;49.474;11.106;2023-12-22T13:56:46;7.70;;;1.60;;
46355;SDS011;32066;49.474;11.106;2023-12-22T13:59:21;7.15;;;1.70;;
46355;SDS011;32066;49.474;11.106;2023-12-22T14:01:59;9.75;;;1.75;;
46355;SDS011;32066;49.474;11.106;2023-12-22T14:04:28;8.48;;;2.35;;
46355;SDS011;32066;49.474;11.106;2023-12-22T14:06:57;11.07;;;1.70;;
46355;SDS011;32066;49.474;11.106;2023-12-22T14:09:28;8.70;;;2.05;;
46355;SDS011;32066;49.474;11.106;2023-12-22T14:11:58;9.20;;;3.90;;
46355;SDS011;32066;49.474;11.106;2023-12-22T14:14:27;6.30;;;1.52;;
46355;SDS011;32066;49.474;11.106;2023-12-22T14:16:59;8.43;;;1.65;;
46355;SDS011;32066;49.474;11.106;2023-12-22T14:19:27;9.88;;;2.00;;
46355;SDS011;32066;49.474;11.106;2023-12-22T14:21:56;9.13;;;2.03;;
46355;SDS011;32066;49.474;11.106;2023-12-22T14:24:24;8.05;;;1.73;;
46355;SDS011;32066;49.474;11.106;2023-12-22T14:26:56;4.95;;;1.50;;
46355;SDS011;32066;49.474;11.106;2023-12-22T14:29:25;6.78;;;1.73;;
46355;SDS011;32066;49.474;11.106;2023-12-22T14:31:54;8.02;;;1.50;;
46355;SDS011;32066;49.474;11.106;2023-12-22T14:34:23;7.35;;;1.60;;
46355;SDS011;32066;49.474;11.106;2023-12-22T14:36:51;6.05;;;1.60;;
46355;SDS011;32066;49.474;11.106;2023-12-22T14:39:20;7.50;;;1.65;;
46355;SDS011;32066;49.474;11.106;2023-12-22T14:41:51;6.28;;;1.80;;
46355;SDS011;32066;49.474;11.106;2023-12-22T14:44:20;7.28;;;1.55;;
46355;SDS011;32066;49.474;11.106;2023-12-22T14:46:48;5.85;;;1.25;;
46355;SDS011;32066;49.474;11.106;2023-12-22T14:49:17;5.50;;;1.30;;
46355;SDS011;32066;49.474;11.106;2023-12-22T14:51:46;4.53;;;1.00;;
46355;SDS011;32066;49.474;11.106;2023-12-22T14:54:17;3.35;;;1.00;;
46355;SDS011;32066;49.474;11.106;2023-12-22T14:56:46;4.22;;;1.10;;
46355;SDS011;32066;49.474;11.106;2023-12-22T14:59:17;4.97;;;1.05;;